Time;durP1;ratioP1;P1;durP2;ratioP2;P2;SDS_P1;SDS_P2;PMS_P1;PMS_P2;Temp;Humidity;BMP_temperature;BMP_pressure;BME280_temperature;BME280_humidity;BME280_pressure;Samples;Min_cycle;Max_cycle;Signal;HPM_P1;HPM_P2
2024/01/25 00:01:54;;;;;;;12.43;3.03;;;11.30;99.90;;;11.41;79.43;101799.25;4854965;28;24461;-65
2024/01/25 00:04:17;;;;;;;9.82;2.20;;;11.30;99.90;;;11.40;78.73;101795.78;4828196;28;24490;-65
2024/01/25 00:06:39;;;;;;;8.15;2.75;;;11.20;99.90;;;11.39;79.06;101793.28;4852598;28;24447;-64
2024/01/25 00:09:01;;;;;;;8.27;2.78;;;11.20;99.90;;;11.39;79.41;101790.66;4852577;28;25061;-65
2024/01/25 00:11:23;;;;;;;11.45;2.60;;;11.20;99.90;;;11.39;79.49;101791.47;4856345;28;24849;-63
2024/01/25 00:13:45;;;;;;;14.00;3.17;;;11.20;99.90;;;11.41;78.62;101791.41;4835873;28;24831;-65
2024/01/25 00:16:07;;;;;;;13.75;2.80;;;11.20;99.90;;;11.39;79.52;101782.81;4854645;28;24439;-65
2024/01/25 00:18:29;;;;;;;10.07;3.00;;;11.20;99.90;;;11.37;79.78;101795.94;4842807;28;24543;-66
2024/01/25 00:20:52;;;;;;;9.25;2.70;;;11.20;99.90;;;11.35;79.70;101799.59;4847409;28;24521;-64
2024/01/25 00:23:14;;;;;;;10.20;2.80;;;11.20;99.90;;;11.31;80.30;101798.91;4853565;28;24451;-65
2024/01/25 00:25:36;;;;;;;13.73;3.13;;;11.10;99.90;;;11.30;80.20;101801.63;4839417;28;24486;-65
2024/01/25 00:27:57;;;;;;;11.70;2.80;;;11.10;99.90;;;11.29;79.64;101799.94;4847489;28;24486;-63
2024/01/25 00:30:19;;;;;;;7.40;2.50;;;11.10;99.90;;;11.29;79.67;101803.38;4857532;28;24882;-64
2024/01/25 00:32:42;;;;;;;9.27;2.63;;;11.10;99.90;;;11.28;80.26;101800.88;4851899;28;25926;-65
2024/01/25 00:35:05;;;;;;;10.45;2.70;;;11.10;99.90;;;11.24;80.69;101805.44;4842087;28;20805;-65
2024/01/25 00:37:28;;;;;;;16.13;4.05;;;11.10;99.90;;;11.23;80.28;101803.75;4855771;28;24447;-64
2024/01/25 00:39:50;;;;;;;10.07;2.55;;;11.10;99.90;;;11.22;79.79;101807.25;4844910;28;24427;-65
2024/01/25 00:42:14;;;;;;;9.10;2.20;;;11.00;99.90;;;11.26;80.39;101810.56;4848589;28;24900;-65
2024/01/25 00:44:36;;;;;;;11.85;2.47;;;11.10;99.90;;;11.26;80.29;101805.34;4841175;28;24463;-64
2024/01/25 00:46:59;;;;;;;11.00;2.43;;;11.10;99.90;;;11.24;80.99;101802.81;4844884;28;24455;-64
2024/01/25 00:49:21;;;;;;;11.70;2.70;;;11.10;99.90;;;11.25;79.64;101798.41;4854876;28;25047;-64
2024/01/25 00:51:48;;;;;;;8.90;2.70;;;11.10;99.90;;;11.25;80.45;101801.03;4853432;28;24860;-64
2024/01/25 00:54:12;;;;;;;9.55;2.78;;;11.10;99.90;;;11.25;80.21;101795.81;4844276;28;24452;-64
2024/01/25 00:56:35;;;;;;;8.77;2.70;;;11.10;99.90;;;11.25;79.73;101794.03;4846044;28;24447;-64
2024/01/25 00:58:57;;;;;;;12.18;3.10;;;11.10;99.90;;;11.26;80.58;101795.75;4847041;28;24539;-64
2024/01/25 01:01:22;;;;;;;8.63;2.70;;;11.10;99.90;;;11.25;80.16;101791.44;4847042;28;24438;-64
2024/01/25 01:03:45;;;;;;;10.50;2.80;;;11.10;99.90;;;11.23;80.51;101798.50;4833073;28;24459;-64
2024/01/25 01:06:08;;;;;;;11.40;2.90;;;11.10;99.90;;;11.23;79.85;101797.66;4862587;23;24464;-66
2024/01/25 01:08:30;;;;;;;7.33;2.30;;;11.10;99.90;;;11.21;80.15;101805.59;4820200;28;24572;-67
2024/01/25 01:10:52;;;;;;;11.00;2.50;;;11.00;99.90;;;11.19;79.90;101801.38;4836882;28;24787;-66
2024/01/25 01:13:14;;;;;;;9.85;2.60;;;11.00;99.90;;;11.20;80.98;101806.50;4837471;28;24551;-66
2024/01/25 01:15:36;;;;;;;9.60;2.33;;;11.00;99.90;;;11.17;80.35;101800.63;4811516;28;24445;-66
2024/01/25 01:17:58;;;;;;;8.10;2.58;;;11.00;99.90;;;11.13;79.97;101799.97;4833382;28;24783;-68
2024/01/25 01:20:20;;;;;;;12.90;2.70;;;11.00;99.90;;;11.11;80.58;101800.97;4833253;28;25036;-68
2024/01/25 01:22:42;;;;;;;8.98;2.50;;;11.00;99.90;;;11.07;80.79;101799.47;4837695;28;24827;-68
2024/01/25 01:25:05;;;;;;;8.30;2.30;;;10.90;99.90;;;11.03;80.21;101787.50;4836070;28;24651;-67
2024/01/25 01:27:27;;;;;;;9.30;2.63;;;10.90;99.90;;;10.99;80.75;101781.59;4837172;28;24508;-69
2024/01/25 01:29:49;;;;;;;11.33;2.23;;;10.90;99.90;;;10.92;81.12;101788.91;4834241;28;24948;-68
2024/01/25 01:32:11;;;;;;;5.53;2.20;;;10.80;99.90;;;10.88;80.50;101784.78;4837954;28;24515;-68
2024/01/25 01:34:33;;;;;;;6.20;1.90;;;10.80;99.90;;;10.83;80.84;101789.44;4837251;28;24439;-67
2024/01/25 01:36:55;;;;;;;9.30;2.60;;;10.70;99.90;;;10.82;81.24;101792.13;4836428;28;24444;-68
2024/01/25 01:39:18;;;;;;;6.05;1.90;;;10.70;99.90;;;10.82;80.39;101786.88;4838088;28;24520;-67
2024/01/25 01:41:40;;;;;;;5.13;2.10;;;10.70;99.90;;;10.79;80.93;101777.50;4837765;28;25055;-69
2024/01/25 01:44:02;;;;;;;7.50;2.60;;;10.70;99.90;;;10.76;80.15;101785.47;4835246;28;24543;-69
2024/01/25 01:46:36;;;;;;;5.45;2.10;;;10.70;99.90;;;10.73;80.96;101783.00;4837217;28;24435;-70
2024/01/25 01:48:59;;;;;;;13.80;3.10;;;10.60;99.90;;;10.70;79.89;101785.81;4836078;28;24512;-67
2024/01/25 01:51:21;;;;;;;8.77;2.38;;;10.60;99.90;;;10.71;79.59;101777.03;4842766;28;24432;-68
2024/01/25 01:53:44;;;;;;;7.80;2.30;;;10.60;99.90;;;10.70;80.55;101783.19;4828088;28;24450;-67
2024/01/25 01:56:06;;;;;;;8.07;2.63;;;10.50;99.90;;;10.70;80.02;101791.03;4834534;28;24424;-67
2024/01/25 01:58:30;;;;;;;9.90;2.40;;;10.50;99.90;;;10.69;79.55;101788.50;4818865;28;24428;-68
2024/01/25 02:00:54;;;;;;;12.07;2.63;;;10.50;99.90;;;10.67;80.48;101780.75;4838056;28;24523;-67
2024/01/25 02:03:16;;;;;;;8.20;2.35;;;10.50;99.90;;;10.68;80.19;101787.66;4830230;28;24451;-67
2024/01/25 02:05:38;;;;;;;10.90;2.50;;;10.50;99.90;;;10.68;79.89;101802.47;4836724;28;24506;-67
2024/01/25 02:08:00;;;;;;;12.00;2.80;;;10.50;99.90;;;10.63;79.90;101794.88;4829897;28;24820;-68
2024/01/25 02:10:21;;;;;;;7.00;2.30;;;10.50;99.90;;;10.64;79.27;101793.97;4837255;28;25795;-69
2024/01/25 02:12:43;;;;;;;11.68;2.55;;;10.50;99.90;;;10.61;80.33;101791.50;4835544;28;24970;-70
2024/01/25 02:15:06;;;;;;;10.05;2.20;;;10.50;99.90;;;10.60;80.67;101789.84;4837013;28;24483;-68
2024/01/25 02:17:28;;;;;;;8.60;2.30;;;10.50;99.90;;;10.61;79.78;101791.50;4836082;28;24766;-67
2024/01/25 02:19:50;;;;;;;8.90;2.50;;;10.50;99.90;;;10.60;80.33;101789.00;4808967;28;24448;-68
2024/01/25 02:22:18;;;;;;;7.88;2.40;;;10.50;99.90;;;10.61;79.66;101796.75;4829092;28;24862;-67
2024/01/25 02:24:40;;;;;;;6.90;2.10;;;10.50;99.90;;;10.64;79.35;101795.75;4835147;28;24475;-68
2024/01/25 02:27:05;;;;;;;8.87;2.20;;;10.50;99.90;;;10.61;79.48;101795.88;4828160;28;24448;-70
2024/01/25 02:29:27;;;;;;;9.52;2.50;;;10.50;99.90;;;10.61;78.89;101801.97;4839790;28;24791;-70
2024/01/25 02:31:48;;;;;;;9.20;1.90;;;10.50;99.90;;;10.65;79.34;101810.47;4835568;28;24431;-71
2024/01/25 02:34:11;;;;;;;8.38;2.30;;;10.50;99.90;;;10.63;78.45;101805.31;4832337;28;24448;-70
2024/01/25 02:36:33;;;;;;;7.80;2.10;;;10.50;99.90;;;10.66;78.70;101801.72;4834906;28;24433;-70
2024/01/25 02:38:55;;;;;;;7.00;2.35;;;10.50;99.90;;;10.66;78.48;101799.94;4833871;28;24428;-68
2024/01/25 02:41:16;;;;;;;6.10;2.15;;;10.50;99.90;;;10.68;78.39;101805.94;4836305;28;24994;-70
2024/01/25 02:43:38;;;;;;;11.20;2.00;;;10.50;99.90;;;10.68;77.41;101798.09;4834099;28;24570;-67
2024/01/25 02:46:00;;;;;;;9.73;1.90;;;10.50;99.90;;;10.69;77.40;101805.00;4836924;28;24498;-69
2024/01/25 02:48:22;;;;;;;9.38;2.70;;;10.50;99.90;;;10.68;77.73;101797.25;4816047;28;24445;-67
2024/01/25 02:50:44;;;;;;;5.68;2.33;;;10.60;99.90;;;10.65;77.44;101808.69;4828928;28;24467;-67
2024/01/25 02:53:06;;;;;;;7.75;2.30;;;10.50;99.90;;;10.63;78.28;101807.94;4810693;28;24470;-67
2024/01/25 02:55:28;;;;;;;9.45;2.45;;;10.50;99.90;;;10.59;78.45;101803.81;4834712;28;25120;-69
2024/01/25 02:57:50;;;;;;;8.85;2.20;;;10.50;99.90;;;10.57;77.82;101799.59;4835395;28;24997;-67
2024/01/25 03:00:13;;;;;;;7.20;2.10;;;10.50;99.90;;;10.54;77.61;101811.03;4832080;28;24426;-69
2024/01/25 03:02:35;;;;;;;8.68;2.20;;;10.40;99.90;;;10.46;78.09;101808.00;4830779;28;24527;-67
2024/01/25 03:04:57;;;;;;;7.82;2.00;;;10.30;99.90;;;10.40;77.88;101807.47;4835109;28;24449;-68
2024/01/25 03:07:19;;;;;;;13.03;2.50;;;10.30;99.90;;;10.34;77.82;101807.78;4817171;28;24505;-67
2024/01/25 03:09:41;;;;;;;7.95;2.00;;;10.30;99.90;;;10.27;78.63;101812.50;4836878;28;24431;-67
2024/01/25 03:12:03;;;;;;;9.70;2.50;;;10.20;99.90;;;10.21;78.98;101812.81;4826475;28;24437;-70
2024/01/25 03:14:25;;;;;;;8.03;1.90;;;10.10;99.90;;;10.14;79.19;101816.66;4833807;28;24547;-70
2024/01/25 03:16:47;;;;;;;5.82;2.00;;;10.10;99.90;;;10.07;79.16;101810.03;4828606;28;24455;-67
2024/01/25 03:19:10;;;;;;;10.07;2.30;;;10.00;99.90;;;10.04;79.88;101807.59;4816921;28;24869;-67
2024/01/25 03:21:32;;;;;;;9.63;2.17;;;10.00;99.90;;;9.97;80.18;101816.63;4828957;28;24462;-67
2024/01/25 03:23:54;;;;;;;10.48;2.50;;;9.90;99.90;;;9.94;79.85;101825.47;4817197;28;24858;-68
2024/01/25 03:26:16;;;;;;;7.78;2.40;;;9.90;99.90;;;9.92;80.20;101821.25;4833308;28;24476;-68
2024/01/25 03:28:39;;;;;;;10.10;2.20;;;9.80;99.90;;;9.91;79.93;101824.75;4824889;28;24889;-67
2024/01/25 03:31:02;;;;;;;7.32;2.33;;;9.80;99.90;;;9.88;80.52;101824.94;4835116;28;24425;-70
2024/01/25 03:33:25;;;;;;;7.78;2.60;;;9.80;99.90;;;9.84;80.46;101839.88;4833198;28;24436;-68
2024/01/25 03:35:47;;;;;;;6.45;2.25;;;9.70;99.90;;;9.83;80.52;101832.13;4825853;28;24531;-67
2024/01/25 03:38:09;;;;;;;6.70;2.28;;;9.70;99.90;;;9.77;80.63;101825.47;4835388;28;24435;-67
2024/01/25 03:40:31;;;;;;;7.90;2.20;;;9.70;99.90;;;9.74;80.46;101833.44;4834553;28;24837;-68
2024/01/25 03:42:53;;;;;;;7.72;2.30;;;9.70;99.90;;;9.68;80.97;101831.13;4834289;28;24831;-67
2024/01/25 03:45:34;;;;;;;9.82;2.50;;;9.60;99.90;;;9.65;80.71;101830.41;4842759;28;24475;-68
2024/01/25 03:47:57;;;;;;;8.25;2.10;;;9.60;99.90;;;9.60;81.33;101824.59;4832852;28;20789;-69
2024/01/25 03:50:19;;;;;;;8.07;2.37;;;9.50;99.90;;;9.58;81.35;101829.91;4838539;28;24528;-68
2024/01/25 03:52:41;;;;;;;10.65;2.58;;;9.50;99.90;;;9.53;81.40;101837.09;4835095;28;24480;-66
2024/01/25 03:55:04;;;;;;;11.45;2.60;;;9.40;99.90;;;9.52;81.77;101838.00;4835831;28;24806;-66
2024/01/25 03:57:26;;;;;;;9.40;2.30;;;9.40;99.90;;;9.46;82.20;101834.84;4831992;28;24445;-67
2024/01/25 03:59:48;;;;;;;8.02;2.80;;;9.40;99.90;;;9.42;82.13;101838.50;4838482;28;24435;-67
2024/01/25 04:02:11;;;;;;;7.70;2.42;;;9.30;99.90;;;9.38;82.22;101846.50;4833661;28;24455;-67
2024/01/25 04:04:33;;;;;;;11.00;2.60;;;9.30;99.90;;;9.37;82.34;101851.75;4831749;28;24456;-67
2024/01/25 04:06:55;;;;;;;7.95;2.50;;;9.30;99.90;;;9.33;82.28;101858.88;4838751;28;24431;-67
2024/01/25 04:09:17;;;;;;;9.82;2.53;;;9.30;99.90;;;9.30;82.57;101853.84;4839857;28;24430;-67
2024/01/25 04:11:39;;;;;;;9.52;2.28;;;9.20;99.90;;;9.26;82.98;101861.84;4833820;28;24462;-66
2024/01/25 04:14:01;;;;;;;6.95;2.50;;;9.20;99.90;;;9.24;82.98;101861.09;4833156;28;24453;-67
2024/01/25 04:16:23;;;;;;;8.65;2.17;;;9.20;99.90;;;9.20;82.50;101857.75;4833071;28;24885;-68
2024/01/25 04:18:45;;;;;;;8.95;2.35;;;9.10;99.90;;;9.16;83.00;101852.78;4845052;28;24434;-67
2024/01/25 04:21:09;;;;;;;13.55;2.80;;;9.10;99.90;;;9.12;83.38;101869.44;4838094;28;24428;-67
2024/01/25 04:23:31;;;;;;;10.48;2.63;;;9.10;99.90;;;9.08;83.34;101875.72;4817236;28;24445;-67
2024/01/25 04:25:55;;;;;;;12.00;2.70;;;9.00;99.90;;;8.97;84.57;101872.75;4843586;28;25103;-68
2024/01/25 04:28:17;;;;;;;12.70;2.42;;;9.00;99.90;;;9.02;84.35;101876.84;4833867;28;20799;-66
2024/01/25 04:30:39;;;;;;;6.72;2.45;;;9.00;99.90;;;9.03;83.99;101877.72;4838588;28;24506;-67
2024/01/25 04:33:02;;;;;;;9.93;2.83;;;8.90;99.90;;;8.94;84.34;101876.38;4837605;28;24518;-67
2024/01/25 04:35:24;;;;;;;6.43;2.17;;;8.90;99.90;;;8.96;84.40;101878.91;4838444;28;24440;-70
2024/01/25 04:37:46;;;;;;;7.85;2.50;;;8.90;99.90;;;8.93;84.38;101876.41;4837075;28;24448;-67
2024/01/25 04:40:08;;;;;;;9.70;2.30;;;8.90;99.90;;;8.90;84.02;101874.78;4837110;28;21626;-69
2024/01/25 04:42:30;;;;;;;9.85;2.70;;;8.90;99.90;;;8.91;84.55;101879.09;4834006;28;24463;-70
2024/01/25 04:44:53;;;;;;;8.70;2.85;;;8.90;99.90;;;8.91;84.47;101886.06;4833208;28;24455;-70
2024/01/25 04:47:14;;;;;;;7.30;2.10;;;8.90;99.90;;;8.94;84.66;101894.59;4812363;28;24535;-69
2024/01/25 04:49:37;;;;;;;6.53;2.55;;;8.90;99.90;;;8.95;84.65;101898.88;4845175;28;24424;-67
2024/01/25 04:51:59;;;;;;;9.82;2.38;;;8.90;99.90;;;8.94;84.37;101897.19;4827307;28;24452;-68
2024/01/25 04:54:21;;;;;;;9.45;2.20;;;8.90;99.90;;;8.94;84.54;101902.41;4844258;28;24428;-67
2024/01/25 04:56:44;;;;;;;8.68;2.10;;;8.90;99.90;;;8.90;84.82;101910.41;4835856;28;25008;-68
2024/01/25 04:59:06;;;;;;;10.68;2.58;;;8.90;99.90;;;8.88;84.69;101909.63;4810830;28;24613;-67
2024/01/25 05:01:28;;;;;;;8.55;2.50;;;8.80;99.90;;;8.91;84.97;101917.28;4832938;28;24443;-67
2024/01/25 05:03:50;;;;;;;9.10;2.60;;;8.80;99.90;;;8.94;84.73;101918.03;4833481;28;24432;-67
2024/01/25 05:06:12;;;;;;;11.63;2.60;;;8.80;99.90;;;8.98;85.24;101916.97;4837350;28;24539;-68
2024/01/25 05:08:34;;;;;;;11.35;2.95;;;8.90;99.90;;;9.00;84.74;101920.34;4831866;28;24893;-67
2024/01/25 05:10:56;;;;;;;6.95;2.50;;;8.90;99.90;;;8.97;84.43;101917.00;4815585;28;24451;-67
2024/01/25 05:13:19;;;;;;;9.60;2.70;;;8.90;99.90;;;8.95;84.82;101924.03;4833189;28;24535;-67
2024/01/25 05:15:41;;;;;;;9.38;2.70;;;8.90;99.90;;;8.93;85.15;101928.47;4842211;28;24523;-67
2024/01/25 05:18:03;;;;;;;9.68;3.15;;;8.90;99.90;;;8.90;85.09;101920.81;4837871;28;24433;-67
2024/01/25 05:20:32;;;;;;;8.23;3.00;;;8.80;99.90;;;8.90;85.09;101920.81;4833038;28;24503;-67
2024/01/25 05:22:54;;;;;;;8.95;2.40;;;8.80;99.90;;;8.87;85.05;101916.59;4846170;28;24878;-68
2024/01/25 05:25:16;;;;;;;11.65;3.05;;;8.80;99.90;;;8.82;85.05;101923.75;4836692;28;24449;-67
2024/01/25 05:27:38;;;;;;;6.90;2.13;;;8.80;99.90;;;8.78;85.18;101932.59;4833176;28;24534;-65
2024/01/25 05:30:00;;;;;;;11.55;2.80;;;8.70;99.90;;;8.71;85.55;101931.19;4834099;28;24846;-67
2024/01/25 05:32:22;;;;;;;10.30;2.90;;;8.70;99.90;;;8.67;85.57;101928.81;4831667;28;25029;-67
2024/01/25 05:34:44;;;;;;;11.18;3.10;;;8.70;99.90;;;8.64;86.44;101929.78;4836897;28;24439;-67
2024/01/25 05:37:06;;;;;;;13.73;3.45;;;8.60;99.90;;;8.64;85.85;101929.78;4836769;28;24428;-68
2024/01/25 05:39:28;;;;;;;7.43;2.23;;;8.60;99.90;;;8.63;86.50;101929.81;4837032;28;24473;-67
2024/01/25 05:41:50;;;;;;;11.65;2.90;;;8.60;99.90;;;8.60;86.50;101929.03;4830208;28;24455;-67
2024/01/25 05:44:13;;;;;;;9.73;2.65;;;8.60;99.90;;;8.61;86.78;101935.09;4829969;28;24452;-67
2024/01/25 05:46:35;;;;;;;9.98;2.70;;;8.60;99.90;;;8.60;86.42;101930.81;4828031;28;24548;-68
2024/01/25 05:48:57;;;;;;;11.57;2.90;;;8.50;99.90;;;8.60;86.57;101928.22;4836604;28;25176;-67
2024/01/25 05:51:19;;;;;;;5.85;2.70;;;8.50;99.90;;;8.62;86.41;101930.75;4835398;28;24448;-68
2024/01/25 05:53:41;;;;;;;11.05;3.45;;;8.60;99.90;;;8.58;86.98;101924.84;4834210;28;25084;-67
2024/01/25 05:56:04;;;;;;;10.60;2.88;;;8.50;99.90;;;8.56;86.65;101927.50;4835331;28;24428;-69
2024/01/25 05:58:26;;;;;;;10.38;2.50;;;8.50;99.90;;;8.56;86.87;101929.28;4839987;28;24432;-68
2024/01/25 06:00:48;;;;;;;7.25;3.00;;;8.50;99.90;;;8.55;86.79;101925.81;4836440;28;24643;-67
2024/01/25 06:03:11;;;;;;;10.65;2.97;;;8.50;99.90;;;8.54;87.58;101924.09;4831017;28;24449;-67
2024/01/25 06:05:33;;;;;;;7.23;2.40;;;8.50;99.90;;;8.54;86.88;101924.09;4836223;28;24456;-67
2024/01/25 06:07:55;;;;;;;7.30;2.80;;;8.50;99.90;;;8.55;87.31;101930.16;4836513;28;24490;-68
2024/01/25 06:10:17;;;;;;;13.40;2.90;;;8.50;99.90;;;8.53;87.34;101932.84;4821482;28;24452;-68
2024/01/25 06:12:39;;;;;;;9.88;2.72;;;8.50;99.90;;;8.54;86.84;101937.13;4828163;28;24444;-68
2024/01/25 06:15:01;;;;;;;6.80;2.60;;;8.50;99.90;;;8.55;87.13;101940.56;4836110;28;24482;-67
2024/01/25 06:17:23;;;;;;;10.02;2.63;;;8.50;99.90;;;8.56;86.83;101934.47;4836559;28;24451;-67
2024/01/25 06:19:45;;;;;;;7.70;2.30;;;8.50;99.90;;;8.55;87.19;101928.41;4837520;28;24845;-68
2024/01/25 06:22:07;;;;;;;8.00;2.50;;;8.50;99.90;;;8.53;86.93;101922.44;4828572;28;24519;-67
2024/01/25 06:24:29;;;;;;;9.60;2.83;;;8.50;99.90;;;8.52;87.25;101928.53;4836594;28;24432;-67
2024/01/25 06:26:53;;;;;;;9.90;2.90;;;8.50;99.90;;;8.51;87.47;101913.00;4814357;28;24440;-67
2024/01/25 06:29:15;;;;;;;11.77;2.40;;;8.50;99.90;;;8.50;87.39;101919.09;4809131;28;24524;-67
2024/01/25 06:31:45;;;;;;;7.68;2.50;;;8.50;99.90;;;8.48;87.46;101926.13;4835996;28;24431;-68
2024/01/25 06:34:07;;;;;;;7.10;2.50;;;8.50;99.90;;;8.44;87.34;101920.22;4811681;28;24587;-67
2024/01/25 06:36:29;;;;;;;9.52;3.17;;;8.40;99.90;;;8.44;87.67;101928.03;4837348;28;24527;-67
2024/01/25 06:38:51;;;;;;;8.43;2.58;;;8.40;99.90;;;8.40;88.21;101936.00;4830557;28;24479;-69
2024/01/25 06:41:13;;;;;;;10.38;2.80;;;8.40;99.90;;;8.27;88.67;101935.69;4818771;28;25156;-67
2024/01/25 06:43:35;;;;;;;11.30;3.67;;;8.30;99.90;;;8.33;88.00;101944.97;4822728;28;24461;-67
2024/01/25 06:45:57;;;;;;;10.87;2.97;;;8.30;99.90;;;8.31;88.13;101946.81;4835763;28;25052;-67
2024/01/25 06:48:19;;;;;;;13.77;3.50;;;8.30;99.90;;;8.32;88.13;101944.16;4832888;28;25064;-67
2024/01/25 06:50:41;;;;;;;13.30;3.20;;;8.30;99.90;;;8.35;88.13;101944.00;4830907;28;24486;-68
2024/01/25 06:53:04;;;;;;;10.67;3.13;;;8.30;99.90;;;8.30;88.56;101942.53;4823640;28;24606;-67
2024/01/25 06:55:26;;;;;;;8.48;3.00;;;8.30;99.90;;;8.27;88.02;101943.50;4833966;28;24486;-67
2024/01/25 06:57:48;;;;;;;9.25;2.95;;;8.20;99.90;;;8.25;89.07;101944.44;4829124;28;24456;-69
2024/01/25 07:00:14;;;;;;;8.98;3.10;;;8.20;99.90;;;8.18;88.86;101942.97;4836361;28;24432;-68
2024/01/25 07:02:36;;;;;;;11.85;3.30;;;8.20;99.90;;;8.18;89.09;101945.56;4830555;28;25053;-70
2024/01/25 07:05:01;;;;;;;8.32;2.83;;;8.10;99.90;;;8.17;89.74;101944.75;4833421;28;24442;-69
2024/01/25 07:07:23;;;;;;;12.93;3.47;;;8.10;99.90;;;8.20;89.79;101949.81;4835488;28;24516;-67
2024/01/25 07:09:45;;;;;;;14.15;3.53;;;8.10;99.90;;;8.20;89.21;101949.81;4836229;28;24431;-66
2024/01/25 07:12:07;;;;;;;10.93;3.00;;;8.20;99.90;;;8.23;89.76;101947.09;4826669;28;24467;-67
2024/01/25 07:14:29;;;;;;;10.68;3.40;;;8.20;99.90;;;8.24;88.84;101947.94;4834131;28;24421;-67
2024/01/25 07:16:51;;;;;;;12.43;3.30;;;8.20;99.90;;;8.26;88.90;101949.59;4835960;28;24434;-67
2024/01/25 07:19:14;;;;;;;7.90;3.10;;;8.20;99.90;;;8.30;88.71;101966.78;4833457;28;24490;-66
2024/01/25 07:21:36;;;;;;;9.38;3.10;;;8.20;99.90;;;8.36;88.82;101969.13;4818355;28;24436;-68
2024/01/25 07:24:04;;;;;;;12.10;3.70;;;8.30;99.90;;;8.41;88.45;101966.34;4835401;28;24992;-67
2024/01/25 07:26:26;;;;;;;9.82;2.85;;;8.30;99.90;;;8.46;87.99;101961.75;4836577;28;24558;-69
2024/01/25 07:28:48;;;;;;;13.55;3.20;;;8.40;99.90;;;8.50;87.88;101964.19;4831650;28;24450;-69
2024/01/25 07:31:11;;;;;;;9.32;3.00;;;8.40;99.90;;;8.57;87.93;101960.41;4838151;28;24524;-68
2024/01/25 07:33:33;;;;;;;8.95;3.20;;;8.50;99.90;;;8.65;88.02;101962.66;4834839;28;24432;-69
2024/01/25 07:35:58;;;;;;;12.73;3.30;;;8.50;99.90;;;8.72;87.37;101961.50;4835429;28;24435;-66
2024/01/25 07:38:20;;;;;;;8.23;2.70;;;8.60;99.90;;;8.83;87.34;101968.84;4818331;28;24429;-71
2024/01/25 07:40:42;;;;;;;11.90;3.43;;;8.70;99.90;;;8.94;86.39;101967.47;4828253;28;24532;-68
2024/01/25 07:43:04;;;;;;;10.75;3.05;;;8.80;99.90;;;9.11;86.23;101972.78;4836906;28;24447;-67
2024/01/25 07:45:26;;;;;;;9.27;3.03;;;8.90;99.90;;;9.29;84.88;101971.94;4836195;28;24457;-67
2024/01/25 07:47:48;;;;;;;9.88;2.90;;;9.10;99.90;;;9.47;84.31;101975.47;4830546;28;24448;-67
2024/01/25 07:50:17;;;;;;;9.65;3.00;;;9.20;99.90;;;9.67;83.38;101974.56;4818994;28;24497;-67
2024/01/25 07:52:39;;;;;;;7.78;2.65;;;9.40;99.90;;;9.82;81.99;101968.59;4829015;28;24538;-67
2024/01/25 07:55:01;;;;;;;7.70;3.05;;;9.50;99.90;;;10.03;81.83;101975.38;4827742;28;24504;-67
2024/01/25 07:57:25;;;;;;;12.02;3.13;;;9.70;99.90;;;10.41;80.48;101970.94;4831076;28;24441;-67
2024/01/25 07:59:47;;;;;;;11.57;3.20;;;9.90;99.90;;;10.83;78.93;101964.38;4831682;28;24429;-69
2024/01/25 08:02:09;;;;;;;10.20;2.92;;;10.30;99.90;;;11.40;76.37;101959.59;4835016;28;24519;-67
2024/01/25 08:04:31;;;;;;;9.00;2.72;;;10.70;99.90;;;11.95;74.02;101973.09;4834683;28;24432;-67
2024/01/25 08:06:53;;;;;;;9.60;2.80;;;11.10;99.90;;;12.44;70.82;101980.66;4830687;28;24471;-67
2024/01/25 08:09:16;;;;;;;12.70;3.63;;;11.60;99.90;;;12.80;70.09;101979.44;4835292;28;20837;-67
2024/01/25 08:11:38;;;;;;;8.70;3.00;;;11.90;99.90;;;13.03;68.08;101978.88;4834946;28;24439;-67
2024/01/25 08:14:00;;;;;;;12.77;3.05;;;12.20;99.90;;;13.17;67.78;101989.38;4830299;28;25862;-68
2024/01/25 08:16:22;;;;;;;9.85;3.10;;;12.40;99.90;;;13.44;67.34;101997.34;4832530;28;24487;-70
2024/01/25 08:18:46;;;;;;;10.73;3.20;;;12.60;99.90;;;13.90;65.33;102001.38;4834838;28;24804;-67
2024/01/25 08:21:08;;;;;;;7.88;3.08;;;12.90;99.90;;;14.46;63.04;101992.44;4834031;28;24827;-68
2024/01/25 08:23:30;;;;;;;12.63;4.00;;;13.40;99.90;;;15.11;60.89;101994.03;4827268;28;24854;-68
2024/01/25 08:25:52;;;;;;;9.48;3.00;;;14.00;99.90;;;15.87;58.27;101999.16;4831669;28;24478;-68
2024/01/25 08:28:14;;;;;;;8.70;3.33;;;14.60;99.90;;;16.61;56.44;102006.81;4833942;28;24566;-72
2024/01/25 08:30:36;;;;;;;12.27;3.50;;;15.30;99.90;;;17.41;53.51;102013.72;4828197;28;24533;-68
2024/01/25 08:33:01;;;;;;;12.75;4.30;;;16.00;99.90;;;18.40;50.87;102004.72;4843257;28;24524;-69
2024/01/25 08:35:23;;;;;;;11.40;3.60;;;16.90;99.90;;;19.22;48.95;101990.63;4836778;28;24439;-65
2024/01/25 08:37:45;;;;;;;11.27;4.20;;;17.70;99.90;;;20.08;46.68;101985.56;4832504;28;24450;-65
2024/01/25 08:40:09;;;;;;;10.23;3.50;;;18.50;99.90;;;20.96;44.65;101994.13;4838724;28;24494;-66
2024/01/25 08:42:32;;;;;;;12.67;4.10;;;19.20;99.90;;;21.92;42.82;102002.50;4835018;28;24472;-70
2024/01/25 08:44:54;;;;;;;15.00;4.40;;;20.00;98.80;;;22.92;40.38;102006.50;4838319;28;24814;-69
2024/01/25 08:47:18;;;;;;;12.98;3.92;;;20.90;96.70;;;23.86;38.68;102010.75;4836433;28;25005;-67
2024/01/25 08:49:40;;;;;;;9.48;4.00;;;21.80;94.60;;;24.71;36.51;102012.16;4823876;28;25025;-65
2024/01/25 08:52:02;;;;;;;10.40;3.90;;;22.60;91.90;;;25.34;35.90;102014.88;4832186;28;24540;-65
2024/01/25 08:54:24;;;;;;;10.07;4.05;;;23.30;89.80;;;25.98;34.56;102029.78;4834205;28;24600;-69
2024/01/25 08:56:46;;;;;;;10.67;3.97;;;23.80;85.70;;;26.30;33.88;102023.41;4834439;28;24454;-67
2024/01/25 08:59:08;;;;;;;13.50;4.20;;;24.20;82.10;;;26.52;33.11;102027.88;4836891;28;24440;-65
2024/01/25 09:01:30;;;;;;;11.30;4.60;;;24.50;79.10;;;26.89;32.23;102026.06;4837278;28;24838;-65
2024/01/25 09:03:52;;;;;;;18.23;4.57;;;24.80;76.60;;;27.47;31.22;102024.41;4838327;28;24431;-65
2024/01/25 09:06:15;;;;;;;13.05;5.20;;;25.20;74.30;;;28.12;30.91;102027.88;4835200;28;25006;-68
2024/01/25 09:08:37;;;;;;;12.48;4.68;;;25.80;72.50;;;28.63;29.51;102030.41;4831122;28;25044;-65
2024/01/25 09:10:59;;;;;;;13.10;4.00;;;26.30;69.60;;;29.07;29.19;102025.53;4836650;28;24444;-67
2024/01/25 09:13:21;;;;;;;8.40;4.03;;;26.70;67.40;;;29.65;28.21;102029.56;4838598;28;24540;-65
2024/01/25 09:15:45;;;;;;;13.15;3.80;;;27.20;65.90;;;29.95;27.95;102025.56;4831069;28;24455;-67
2024/01/25 09:18:07;;;;;;;11.10;4.30;;;27.50;64.10;;;30.06;27.09;102024.97;4844790;28;20808;-68
2024/01/25 09:20:29;;;;;;;9.40;3.63;;;27.70;62.80;;;29.84;27.42;102028.84;4842190;28;20774;-68
2024/01/25 09:22:55;;;;;;;11.32;3.95;;;27.60;61.90;;;29.38;27.86;102020.59;4844969;28;24662;-68
2024/01/25 09:25:17;;;;;;;13.15;3.70;;;27.30;60.80;;;28.45;28.36;102025.50;4837663;28;24527;-67
2024/01/25 09:27:39;;;;;;;12.35;4.00;;;26.70;61.10;;;26.23;31.61;102019.75;4841175;28;25020;-68
2024/01/25 09:30:01;;;;;;;11.93;3.83;;;25.20;62.80;;;24.13;34.23;102009.66;4832978;28;24938;-68
2024/01/25 09:32:23;;;;;;;9.73;3.63;;;23.60;65.00;;;22.41;37.65;102017.06;4835835;28;25206;-68
2024/01/25 09:34:45;;;;;;;10.40;3.17;;;22.10;68.50;;;20.96;40.49;102012.69;4835313;28;25143;-67
2024/01/25 09:37:07;;;;;;;9.18;3.55;;;20.70;71.40;;;19.70;42.81;101998.78;4816263;28;24441;-68
2024/01/25 09:39:31;;;;;;;10.32;3.60;;;19.60;74.00;;;18.70;45.19;102014.59;4820766;28;24515;-67
2024/01/25 09:41:53;;;;;;;14.13;3.40;;;18.50;77.40;;;17.90;47.50;102014.16;4833417;28;24452;-68
2024/01/25 09:44:17;;;;;;;8.77;3.10;;;17.70;80.70;;;17.36;49.20;102010.59;4824626;28;24433;-68
2024/01/25 09:46:41;;;;;;;14.93;3.60;;;17.10;83.90;;;16.84;50.57;102008.53;4836614;28;24547;-69
2024/01/25 09:49:03;;;;;;;10.35;2.67;;;16.50;87.00;;;16.49;52.32;102008.53;4832820;28;24467;-67
2024/01/25 09:51:27;;;;;;;12.80;3.65;;;16.10;90.40;;;16.14;53.39;102008.50;4835894;28;25057;-66
2024/01/25 09:53:51;;;;;;;10.45;3.05;;;15.80;91.70;;;15.93;54.55;102019.78;4815055;28;25287;-68
2024/01/25 09:56:13;;;;;;;11.90;3.17;;;15.50;93.40;;;15.74;55.33;102011.53;4817194;28;24552;-69